Latest Coastal Weather Observations for Portland Harbour

IDV60701

Issued at 10:02 pm EST Tuesday 4 August 2020 (issued every 10 minutes, with the page automatically refreshed every 10 minutes)

About coastal observations | Map of coastal stations | Coastal observations for VIC | Marine services | Other Formats
Station Details ID: 090192 Name: PORTLAND NTC AWS Lat: -38.34 Lon: 141.61 Height: 0.0 m
Data from the previous 72 hours. | See also: Recent months for locations in Victoria
Date/Time
EST
Wind Sea
Height
m
Swell Vis
km
Cloud Weather Temp
°C
Press
hPa
Rain since
9am
mm
Dir  Spd
kts
Gust
kts
Height
m
Period
s
Dir
04/10:00pm S 11 18 - - - - - - - 9.9 1019.1 -
04/09:30pm S 14 21 - - - - - - - 9.9 1019.1 -
04/09:00pm S 15 22 - - - - - - - 9.8 1019.0 -
04/08:34pm S 16 27 - - - - - - - 9.6 1018.7 -
04/08:30pm S 18 27 - - - - - - - 9.5 1018.7 -
04/08:13pm S 17 27 - - - - - - - 10.6 1018.6 -
04/08:00pm SSW 16 22 - - - - - - - 10.1 1018.4 -
04/07:30pm SSW 18 28 - - - - - - - 10.0 1018.2 -
04/07:08pm SSW 18 31 - - - - - - - 10.4 1017.9 -
04/07:00pm S 18 25 - - - - - - - 10.6 1017.9 -
04/06:30pm SSW 14 26 - - - - - - - 10.5 1017.6 -
04/06:20pm SW 15 26 - - - - - - - 9.8 1017.5 -
04/06:00pm SSW 18 26 - - - - - - - 10.4 1017.2 -
04/05:30pm SSW 17 23 - - - - - - - 9.9 1017.2 -
04/05:00pm SW 17 23 - - - - - - - 10.2 1017.0 -
04/04:34pm SSW 15 25 - - - - - - - 10.6 1016.9 -
04/04:30pm SSW 17 25 - - - - - - - 10.4 1016.8 -
04/04:00pm SW 16 25 - - - - - - - 10.1 1016.8 -
04/03:30pm SSW 20 29 - - - - - - - 10.8 1016.7 -
04/03:00pm SW 19 28 - - - - - - - 11.1 1016.6 -
04/02:30pm SSW 16 28 - - - - - - - 10.7 1016.6 -
04/02:15pm SSW 23 33 - - - - - - - 9.2 1016.5 -
04/02:08pm SSW 19 31 - - - - - - - 10.6 1016.4 -
04/02:00pm SW 19 29 - - - - - - - 10.7 1016.3 -
04/01:35pm SSW 19 30 - - - - - - - 11.2 1016.4 -
04/01:30pm SW 20 27 - - - - - - - 11.1 1016.2 -
04/01:00pm S 19 25 - - - - - - - 11.0 1016.3 -
04/12:30pm S 19 26 - - - - - - - 10.3 1016.6 -
04/12:00pm SSW 24 36 - - - - - - - 9.7 1016.7 -
04/11:30am SSW 21 35 - - - - - - - 10.6 1016.6 -
04/11:00am SSW 18 29 - - - - - - - 10.5 1016.4 -
04/10:34am SSW 20 40 - - - - - - - 10.3 1016.2 -
04/10:33am SSW 19 29 - - - - - - - 10.6 1016.2 -
04/10:30am SSW 18 26 - - - - - - - 10.4 1016.1 -
04/10:00am SSW 24 40 - - - - - - - 8.4 1016.3 -
04/09:30am SW 23 33 - - - - - - - 9.8 1015.7 -
04/09:00am SW 19 37 - - - - - - - 9.1 1015.5 -
04/08:30am SSW 18 32 - - - - - - - 8.0 1015.1 -
04/08:28am SSW 17 32 - - - - - - - 9.7 1015.0 -
04/08:00am WSW 16 24 - - - - - - - 8.5 1014.5 -
04/07:47am SSW 16 26 - - - - - - - 9.8 1014.5 -
04/07:30am SSW 22 29 - - - - - - - 9.7 1014.4 -
04/07:01am SSW 22 34 - - - - - - - 9.5 1013.9 -
04/07:00am SW 21 28 - - - - - - - 9.5 1013.9 -
04/06:39am SW 17 29 - - - - - - - 8.9 1013.8 -
04/06:30am SW 17 25 - - - - - - - 8.7 1013.6 -
04/06:18am SW 17 28 - - - - - - - 8.6 1013.6 -
04/06:00am SW 20 28 - - - - - - - 8.3 1013.4 -
04/05:30am WSW 17 28 - - - - - - - 8.0 1013.6 -
04/05:00am WSW 23 41 - - - - - - - 6.5 1014.1 -
04/04:57am WSW 20 41 - - - - - - - 7.6 1014.0 -
04/04:49am WSW 17 30 - - - - - - - 8.1 1013.3 -
04/04:30am WSW 12 18 - - - - - - - 7.7 1013.3 -
04/04:14am SW 15 27 - - - - - - - 8.2 1013.6 -
04/04:00am WSW 11 17 - - - - - - - 7.8 1013.7 -
04/03:30am SW 13 22 - - - - - - - 7.8 1013.9 -
04/03:12am SW 15 30 - - - - - - - 7.0 1014.3 -
04/03:00am SW 12 18 - - - - - - - 7.4 1014.2 -
04/02:30am SW 13 19 - - - - - - - 7.5 1014.3 -
04/02:00am SW 17 27 - - - - - - - 7.0 1014.5 -
04/01:39am SW 15 29 - - - - - - - 7.8 1014.6 -
04/01:30am SW 13 21 - - - - - - - 7.8 1014.4 -
04/01:00am SW 15 22 - - - - - - - 7.3 1014.5 -
04/12:30am SSW 20 28 - - - - - - - 7.0 1014.4 -
04/12:09am SW 17 27 - - - - - - - 8.0 1014.3 -
04/12:00am SW 15 23 - - - - - - - 7.7 1014.1 -
 
Date/Time
EST
Wind Sea
Height
m
Swell Vis
km
Cloud Weather Temp
°C
Press
hPa
Rain since
9am
mm
Dir  Spd
kts
Gust
kts
Height
m
Period
s
Dir
03/11:47pm SW 17 27 - - - - - - - 7.2 1014.1 -
03/11:30pm SW 18 28 - - - - - - - 7.3 1014.1 -
03/11:17pm SW 15 25 - - - - - - - 7.4 1014.1 -
03/11:00pm SSW 15 21 - - - - - - - 7.6 1013.9 -
03/10:30pm SW 19 30 - - - - - - - 7.8 1013.9 -
03/10:00pm SW 16 26 - - - - - - - 7.5 1013.6 -
03/09:58pm SW 15 26 - - - - - - - 7.9 1013.5 -
03/09:30pm SW 12 18 - - - - - - - 8.2 1013.1 -
03/09:00pm W 10 15 - - - - - - - 8.1 1013.0 -
03/08:30pm NW 10 19 - - - - - - - 8.1 1013.1 -
03/08:00pm NW 12 20 - - - - - - - 8.5 1012.7 -
03/07:30pm WNW 11 18 - - - - - - - 9.2 1012.8 -
03/07:00pm W 11 19 - - - - - - - 9.5 1013.1 -
03/06:30pm WNW 8 11 - - - - - - - 9.5 1013.0 -
03/06:00pm WNW 10 16 - - - - - - - 9.9 1013.2 -
03/05:30pm W 10 17 - - - - - - - 10.3 1013.2 -
03/05:00pm W 14 19 - - - - - - - 10.7 1013.4 -
03/04:30pm W 13 18 - - - - - - - 10.8 1013.6 -
03/04:00pm WNW 11 15 - - - - - - - 10.8 1013.8 -
03/03:30pm WSW 16 23 - - - - - - - 10.9 1014.1 -
03/03:00pm WSW 14 20 - - - - - - - 11.0 1014.2 -
03/02:30pm WSW 16 23 - - - - - - - 11.0 1014.5 -
03/02:19pm WSW 16 27 - - - - - - - 11.1 1014.4 -
03/02:00pm WSW 16 23 - - - - - - - 11.1 1014.4 -
03/01:30pm WSW 16 23 - - - - - - - 11.2 1014.7 -
03/01:15pm WSW 16 27 - - - - - - - 11.0 1014.9 -
03/01:00pm WSW 11 16 - - - - - - - 11.4 1015.0 -
03/12:30pm WSW 15 22 - - - - - - - 11.5 1015.4 -
03/12:00pm WSW 15 23 - - - - - - - 12.0 1015.6 -
03/11:30am WSW 14 19 - - - - - - - 11.9 1016.1 -
03/11:00am WSW 13 19 - - - - - - - 11.9 1016.3 -
03/10:30am WSW 13 23 - - - - - - - 11.9 1016.5 -
03/10:00am WSW 13 17 - - - - - - - 11.8 1016.7 -
03/09:30am W 7 12 - - - - - - - 11.1 1016.8 -
03/09:00am W 9 13 - - - - - - - 10.5 1017.0 -
03/08:30am NW 5 6 - - - - - - - 9.8 1017.1 -
03/08:00am NW 4 6 - - - - - - - 9.9 1017.2 -
03/07:30am NW 5 6 - - - - - - - 9.8 1017.2 -
03/07:00am NW 5 7 - - - - - - - 9.6 1017.0 -
03/06:30am NW 6 7 - - - - - - - 9.0 1016.8 -
03/06:00am NW 5 8 - - - - - - - 8.9 1017.1 -
03/05:30am NW 6 8 - - - - - - - 9.0 1017.2 -
03/05:00am W 5 7 - - - - - - - 9.2 1017.2 -
03/04:30am NW 6 10 - - - - - - - 9.7 1017.3 -
03/04:00am WNW 3 5 - - - - - - - 9.5 1017.5 -
03/03:30am NW 5 8 - - - - - - - 9.5 1017.8 -
03/03:00am NW 7 11 - - - - - - - 9.6 1018.0 -
03/02:30am NW 8 13 - - - - - - - 9.3 1018.2 -
03/02:00am WNW 4 7 - - - - - - - 8.6 1018.6 -
03/01:30am W 3 5 - - - - - - - 8.5 1018.8 -
03/01:00am WNW 5 8 - - - - - - - 9.3 1019.0 -
03/12:30am WNW 4 5 - - - - - - - 9.6 1019.4 -
03/12:00am WNW 4 5 - - - - - - - 9.9 1019.6 -
 
Date/Time
EST
Wind Sea
Height
m
Swell Vis
km
Cloud Weather Temp
°C
Press
hPa
Rain since
9am
mm
Dir  Spd
kts
Gust
kts
Height
m
Period
s
Dir
02/11:30pm NW 5 7 - - - - - - - 10.0 1019.8 -
02/11:00pm NW 4 5 - - - - - - - 10.2 1020.2 -
02/10:30pm NW 4 5 - - - - - - - 10.2 1020.4 -
02/10:00pm W 4 5 - - - - - - - 10.3 1020.5 -
02/09:30pm W 5 7 - - - - - - - 10.7 1020.7 -
02/09:00pm W 5 6 - - - - - - - 11.0 1021.0 -
02/08:30pm W 4 5 - - - - - - - 11.2 1021.0 -
02/08:00pm W 4 5 - - - - - - - 11.4 1021.0 -
02/07:30pm W 3 4 - - - - - - - 11.3 1021.1 -
02/07:00pm SW 4 6 - - - - - - - 11.8 1021.2 -
02/06:30pm WSW 6 8 - - - - - - - 11.8 1021.1 -
02/06:00pm WSW 4 7 - - - - - - - 11.9 1020.9 -
02/05:30pm SW 7 9 - - - - - - - 12.4 1020.8 -
02/05:00pm WSW 8 10 - - - - - - - 12.9 1020.7 -
02/04:30pm WSW 8 11 - - - - - - - 13.3 1020.6 -
02/04:00pm SW 9 13 - - - - - - - 13.7 1020.7 -
02/03:30pm SW 10 14 - - - - - - - 14.1 1020.7 -
02/03:00pm WNW 7 11 - - - - - - - 14.0 1020.7 -
02/02:30pm W 8 11 - - - - - - - 14.2 1020.8 -
02/02:00pm W 9 15 - - - - - - - 14.1 1020.8 -
02/01:30pm W 10 14 - - - - - - - 13.9 1021.1 -
02/01:00pm WNW 8 13 - - - - - - - 13.9 1021.5 -
02/12:30pm WNW 8 12 - - - - - - - 13.7 1021.9 -
02/12:00pm WNW 8 12 - - - - - - - 13.8 1022.3 -
02/11:30am NW 12 16 - - - - - - - 13.7 1022.5 -
02/11:00am NW 9 14 - - - - - - - 13.3 1022.6 -
02/10:30am NNW 6 11 - - - - - - - 12.6 1022.8 -
02/10:00am NW 5 8 - - - - - - - 12.3 1022.7 -
02/09:30am NW 4 6 - - - - - - - 12.3 1022.7 -
02/09:00am NW 6 9 - - - - - - - 11.2 1022.5 -
02/08:30am NW 6 9 - - - - - - - 9.8 1022.4 -
02/08:00am W 2 3 - - - - - - - 9.5 1022.2 -
02/07:30am W 3 4 - - - - - - - 9.3 1021.9 -
02/07:00am W 3 5 - - - - - - - 9.8 1021.5 -
02/06:30am W 3 5 - - - - - - - 10.0 1021.2 -
02/06:00am WNW 4 6 - - - - - - - 10.4 1021.0 -
02/05:30am NW 5 8 - - - - - - - 10.8 1020.7 -
02/05:00am WNW 3 5 - - - - - - - 10.6 1020.7 -
02/04:30am NW 5 7 - - - - - - - 11.0 1020.6 -
02/04:00am NW 5 7 - - - - - - - 11.0 1020.6 -
02/03:30am NW 3 4 - - - - - - - 11.0 1020.6 -
02/03:00am WNW 4 5 - - - - - - - 11.0 1020.7 -
02/02:30am WNW 4 5 - - - - - - - 11.3 1020.9 -
02/02:00am NW 6 8 - - - - - - - 11.7 1020.9 -
02/01:30am NW 5 6 - - - - - - - 11.8 1020.8 -
02/01:00am NW 4 5 - - - - - - - 11.9 1020.8 -
02/12:30am NW 5 7 - - - - - - - 12.2 1021.0 -
02/12:00am WNW 6 8 - - - - - - - 12.1 1021.0 -
 
Date/Time
EST
Wind Sea
Height
m
Swell Vis
km
Cloud Weather Temp
°C
Press
hPa
Rain since
9am
mm
Dir  Spd
kts
Gust
kts
Height
m
Period
s
Dir
01/11:30pm NW 6 9 - - - - - - - 12.8 1020.8 -
01/11:00pm WNW 6 9 - - - - - - - 13.5 1020.7 -
01/10:30pm NNW 7 9 - - - - - - - 13.6 1020.3 -

Other formats

Comma delimited format used in spreadsheet applications
http://www.bom.gov.au/fwo/IDV60701/IDV60701.95826.axf

JavaScript Object Notation format (JSON) in row-major order
http://www.bom.gov.au/fwo/IDV60701/IDV60701.95826.json

Data quality

Most of these data are generated automatically and are frequently updated. Quality checks on data are not normally performed. It is possible for incorrect values to appear. Refer to information at About Latest Weather Observations and please check the disclaimer before using these data.